الصفحة الرئيسية
METAR-TAF:

METAR-TAF

مطار :

كوتا بارو, ماليزيا

دائرة عرض: 06-10N, خط طول: 102-17E, ارتفاع: 5 متر

مراقبة الطقس الحالي

تاريخ ووقت الإصدار 42 دقيقة قبل الساعة 18:00UTC
ريح 2 عقدةمن اتجاهات متغيرة
درجة الحرارة 28°درجة مئوية
الرطوبة 84%
ضغط 1009 hPa
الرؤية 10 كم أو أكثر
غيوم قليلة على ارتفاع 2000 قدم

METAR: WMKC 011800Z VRB02KT 9999 FEW020 28/25 Q1009

زمن: 02:42 (18:42 UTC)

توقعات

تاريخ ووقت الإصدار 1ساعة و 42 دقيقة قبل الساعة 17:00UTC
التوقعات صالحة من01 الساعة 18 UTC إلى 02 الساعة 18 UTC
ريح 3 عقدةمن اتجاهات متغيرة
الرؤية 10 كم أو أكثر
غيوم قليلة على ارتفاع 2000 قدم
أصبح
من 02 الساعة 00 UTC إلى 02 الساعة 02 UTC
ريح 8 عقدة من الشرق/الشمال الشرقي
غيوم قليلة على ارتفاع 1800 قدم

TAF: WMKC 011700Z 0118/0218 VRB03KT 9999 FEW020 BECMG 0200/0202 07008KT FEW018

أرصاد الطقس والتوقعات من أكثر من 4000 مطار (تقارير الطقس للمطار METAR والتنبؤ بالطقس بالمطارTAF).

المحطات المتاحة هي النقط الصفراء والحمراء على الخريطة.

حرك المؤشر فوق النقطة لمعرفة اسم المحطة.

ثم انقر لمعرفة أرصاد وتوقعات الطقس.

لتغيير الخارطة: اضغط على الأزرار الخضراء مع رمز الصليب الأسود للتكبير. على الزر الأخضر مع شرطة للتصغير، أو على الأسهم الخضراء للخرائط المجاورة.


METAR-TAF: